sensor_id;sensor_type;location;lat;lon;timestamp;P1;durP1;ratioP1;P2;durP2;ratioP2
25439;SDS011;13365;52.208;5.488;2023-04-24T00:00:53;0.65;;;0.45;;
25439;SDS011;13365;52.208;5.488;2023-04-24T00:03:21;1.30;;;0.65;;
25439;SDS011;13365;52.208;5.488;2023-04-24T00:05:49;0.40;;;0.25;;
25439;SDS011;13365;52.208;5.488;2023-04-24T00:08:16;0.60;;;0.50;;
25439;SDS011;13365;52.208;5.488;2023-04-24T00:10:42;0.57;;;0.52;;
25439;SDS011;13365;52.208;5.488;2023-04-24T00:13:07;0.85;;;0.40;;
25439;SDS011;13365;52.208;5.488;2023-04-24T00:15:33;0.57;;;0.28;;
25439;SDS011;13365;52.208;5.488;2023-04-24T00:17:58;0.63;;;0.40;;
25439;SDS011;13365;52.208;5.488;2023-04-24T00:20:26;3.13;;;1.00;;
25439;SDS011;13365;52.208;5.488;2023-04-24T00:22:53;0.20;;;0.20;;
25439;SDS011;13365;52.208;5.488;2023-04-24T00:25:18;0.82;;;0.47;;
25439;SDS011;13365;52.208;5.488;2023-04-24T00:27:44;0.93;;;0.30;;
25439;SDS011;13365;52.208;5.488;2023-04-24T00:30:09;1.05;;;0.52;;
25439;SDS011;13365;52.208;5.488;2023-04-24T00:32:35;1.50;;;0.68;;
25439;SDS011;13365;52.208;5.488;2023-04-24T00:35:01;1.75;;;0.30;;
25439;SDS011;13365;52.208;5.488;2023-04-24T00:37:26;0.40;;;0.30;;
25439;SDS011;13365;52.208;5.488;2023-04-24T00:39:52;1.30;;;0.32;;
25439;SDS011;13365;52.208;5.488;2023-04-24T00:42:17;0.60;;;0.30;;
25439;SDS011;13365;52.208;5.488;2023-04-24T00:44:43;0.35;;;0.28;;
25439;SDS011;13365;52.208;5.488;2023-04-24T00:47:09;0.20;;;0.20;;
25439;SDS011;13365;52.208;5.488;2023-04-24T00:49:36;0.65;;;0.38;;
25439;SDS011;13365;52.208;5.488;2023-04-24T00:52:01;0.68;;;0.35;;
25439;SDS011;13365;52.208;5.488;2023-04-24T00:54:27;0.55;;;0.45;;
25439;SDS011;13365;52.208;5.488;2023-04-24T00:56:52;0.10;;;0.10;;
25439;SDS011;13365;52.208;5.488;2023-04-24T00:59:18;0.60;;;0.30;;
25439;SDS011;13365;52.208;5.488;2023-04-24T01:01:44;1.25;;;0.35;;
25439;SDS011;13365;52.208;5.488;2023-04-24T01:04:11;0.55;;;0.32;;
25439;SDS011;13365;52.208;5.488;2023-04-24T01:06:38;0.47;;;0.32;;
25439;SDS011;13365;52.208;5.488;2023-04-24T01:09:05;0.75;;;0.32;;
25439;SDS011;13365;52.208;5.488;2023-04-24T01:11:33;0.10;;;0.10;;
25439;SDS011;13365;52.208;5.488;2023-04-24T01:13:58;0.43;;;0.20;;
25439;SDS011;13365;52.208;5.488;2023-04-24T01:16:25;0.60;;;0.40;;
25439;SDS011;13365;52.208;5.488;2023-04-24T01:18:50;0.50;;;0.30;;
25439;SDS011;13365;52.208;5.488;2023-04-24T01:21:16;0.40;;;0.20;;
25439;SDS011;13365;52.208;5.488;2023-04-24T01:23:43;0.45;;;0.20;;
25439;SDS011;13365;52.208;5.488;2023-04-24T01:26:09;0.57;;;0.35;;
25439;SDS011;13365;52.208;5.488;2023-04-24T01:28:35;3.22;;;0.52;;
25439;SDS011;13365;52.208;5.488;2023-04-24T01:31:01;0.60;;;0.30;;
25439;SDS011;13365;52.208;5.488;2023-04-24T01:33:27;0.98;;;0.50;;
25439;SDS011;13365;52.208;5.488;2023-04-24T01:35:53;0.65;;;0.52;;
25439;SDS011;13365;52.208;5.488;2023-04-24T01:38:19;1.58;;;0.68;;
25439;SDS011;13365;52.208;5.488;2023-04-24T01:40:44;1.27;;;0.73;;
25439;SDS011;13365;52.208;5.488;2023-04-24T01:43:10;1.80;;;0.75;;
25439;SDS011;13365;52.208;5.488;2023-04-24T01:45:37;1.48;;;0.60;;
25439;SDS011;13365;52.208;5.488;2023-04-24T01:48:02;0.95;;;0.52;;
25439;SDS011;13365;52.208;5.488;2023-04-24T01:50:28;1.48;;;0.75;;
25439;SDS011;13365;52.208;5.488;2023-04-24T01:52:53;2.08;;;0.90;;
25439;SDS011;13365;52.208;5.488;2023-04-24T01:55:19;1.30;;;0.93;;
25439;SDS011;13365;52.208;5.488;2023-04-24T01:57:44;1.35;;;0.90;;
25439;SDS011;13365;52.208;5.488;2023-04-24T02:00:10;3.58;;;1.10;;
25439;SDS011;13365;52.208;5.488;2023-04-24T02:02:37;2.13;;;1.48;;
25439;SDS011;13365;52.208;5.488;2023-04-24T02:05:05;2.47;;;1.30;;
25439;SDS011;13365;52.208;5.488;2023-04-24T02:07:32;3.05;;;1.77;;
25439;SDS011;13365;52.208;5.488;2023-04-24T02:09:57;1.63;;;1.23;;
25439;SDS011;13365;52.208;5.488;2023-04-24T02:12:23;1.52;;;1.40;;
25439;SDS011;13365;52.208;5.488;2023-04-24T02:14:49;6.22;;;1.60;;
25439;SDS011;13365;52.208;5.488;2023-04-24T02:17:15;1.63;;;1.25;;
25439;SDS011;13365;52.208;5.488;2023-04-24T02:19:41;2.85;;;1.42;;
25439;SDS011;13365;52.208;5.488;2023-04-24T02:22:06;1.85;;;1.23;;
25439;SDS011;13365;52.208;5.488;2023-04-24T02:24:32;1.38;;;0.93;;
25439;SDS011;13365;52.208;5.488;2023-04-24T02:26:58;3.90;;;1.20;;
25439;SDS011;13365;52.208;5.488;2023-04-24T02:29:23;1.80;;;1.40;;
25439;SDS011;13365;52.208;5.488;2023-04-24T02:31:49;2.35;;;1.40;;
25439;SDS011;13365;52.208;5.488;2023-04-24T02:34:14;2.40;;;1.15;;
25439;SDS011;13365;52.208;5.488;2023-04-24T02:36:41;1.90;;;1.10;;
25439;SDS011;13365;52.208;5.488;2023-04-24T02:39:06;2.25;;;1.73;;
25439;SDS011;13365;52.208;5.488;2023-04-24T02:41:32;4.63;;;1.60;;
25439;SDS011;13365;52.208;5.488;2023-04-24T02:43:58;3.80;;;1.77;;
25439;SDS011;13365;52.208;5.488;2023-04-24T02:46:24;2.45;;;1.73;;
25439;SDS011;13365;52.208;5.488;2023-04-24T02:48:49;2.80;;;1.77;;
25439;SDS011;13365;52.208;5.488;2023-04-24T02:51:15;3.55;;;2.08;;
25439;SDS011;13365;52.208;5.488;2023-04-24T02:53:40;2.75;;;1.33;;
25439;SDS011;13365;52.208;5.488;2023-04-24T02:56:06;2.28;;;1.75;;
25439;SDS011;13365;52.208;5.488;2023-04-24T02:58:31;2.00;;;1.23;;
25439;SDS011;13365;52.208;5.488;2023-04-24T03:00:57;1.20;;;0.98;;
25439;SDS011;13365;52.208;5.488;2023-04-24T03:03:22;1.58;;;1.20;;
25439;SDS011;13365;52.208;5.488;2023-04-24T03:05:48;1.60;;;1.10;;
25439;SDS011;13365;52.208;5.488;2023-04-24T03:08:14;2.83;;;1.48;;
25439;SDS011;13365;52.208;5.488;2023-04-24T03:10:40;3.50;;;1.00;;
25439;SDS011;13365;52.208;5.488;2023-04-24T03:13:05;1.95;;;1.08;;
25439;SDS011;13365;52.208;5.488;2023-04-24T03:15:31;2.97;;;1.20;;
25439;SDS011;13365;52.208;5.488;2023-04-24T03:17:56;1.30;;;0.90;;
25439;SDS011;13365;52.208;5.488;2023-04-24T03:20:22;1.05;;;0.65;;
25439;SDS011;13365;52.208;5.488;2023-04-24T03:22:47;1.95;;;0.68;;
25439;SDS011;13365;52.208;5.488;2023-04-24T03:25:13;0.90;;;0.68;;
25439;SDS011;13365;52.208;5.488;2023-04-24T03:27:39;0.98;;;0.60;;
25439;SDS011;13365;52.208;5.488;2023-04-24T03:30:05;2.97;;;0.40;;
25439;SDS011;13365;52.208;5.488;2023-04-24T03:32:31;0.25;;;0.15;;
25439;SDS011;13365;52.208;5.488;2023-04-24T03:34:57;2.67;;;0.57;;
25439;SDS011;13365;52.208;5.488;2023-04-24T03:37:22;0.68;;;0.20;;
25439;SDS011;13365;52.208;5.488;2023-04-24T03:39:48;0.25;;;0.15;;
25439;SDS011;13365;52.208;5.488;2023-04-24T03:42:14;0.77;;;0.40;;
25439;SDS011;13365;52.208;5.488;2023-04-24T03:44:39;0.98;;;0.30;;
25439;SDS011;13365;52.208;5.488;2023-04-24T03:47:05;1.05;;;0.50;;
25439;SDS011;13365;52.208;5.488;2023-04-24T03:49:30;1.25;;;0.70;;
25439;SDS011;13365;52.208;5.488;2023-04-24T03:51:56;0.73;;;0.40;;
25439;SDS011;13365;52.208;5.488;2023-04-24T03:54:22;0.47;;;0.30;;
25439;SDS011;13365;52.208;5.488;2023-04-24T03:56:47;1.42;;;0.70;;
25439;SDS011;13365;52.208;5.488;2023-04-24T03:59:13;0.50;;;0.40;;
25439;SDS011;13365;52.208;5.488;2023-04-24T04:01:38;0.90;;;0.75;;
25439;SDS011;13365;52.208;5.488;2023-04-24T04:04:04;2.00;;;0.75;;
25439;SDS011;13365;52.208;5.488;2023-04-24T04:06:33;0.77;;;0.38;;
25439;SDS011;13365;52.208;5.488;2023-04-24T04:08:59;0.38;;;0.30;;
25439;SDS011;13365;52.208;5.488;2023-04-24T04:11:25;0.40;;;0.30;;
25439;SDS011;13365;52.208;5.488;2023-04-24T04:13:52;0.77;;;0.40;;
25439;SDS011;13365;52.208;5.488;2023-04-24T04:16:17;0.90;;;0.52;;
25439;SDS011;13365;52.208;5.488;2023-04-24T04:18:43;0.80;;;0.50;;
25439;SDS011;13365;52.208;5.488;2023-04-24T04:21:09;0.55;;;0.47;;
25439;SDS011;13365;52.208;5.488;2023-04-24T04:23:35;0.63;;;0.43;;
25439;SDS011;13365;52.208;5.488;2023-04-24T04:26:01;2.25;;;0.95;;
25439;SDS011;13365;52.208;5.488;2023-04-24T04:28:27;0.68;;;0.30;;
25439;SDS011;13365;52.208;5.488;2023-04-24T04:30:52;1.10;;;0.65;;
25439;SDS011;13365;52.208;5.488;2023-04-24T04:33:22;0.52;;;0.40;;
25439;SDS011;13365;52.208;5.488;2023-04-24T04:35:51;0.20;;;0.20;;
25439;SDS011;13365;52.208;5.488;2023-04-24T04:38:20;0.65;;;0.50;;
25439;SDS011;13365;52.208;5.488;2023-04-24T04:40:46;0.75;;;0.50;;
25439;SDS011;13365;52.208;5.488;2023-04-24T04:43:11;0.30;;;0.30;;
25439;SDS011;13365;52.208;5.488;2023-04-24T04:45:40;0.68;;;0.50;;
25439;SDS011;13365;52.208;5.488;2023-04-24T04:48:07;0.80;;;0.50;;
25439;SDS011;13365;52.208;5.488;2023-04-24T04:50:34;0.98;;;0.40;;
25439;SDS011;13365;52.208;5.488;2023-04-24T04:53:00;0.10;;;0.08;;
25439;SDS011;13365;52.208;5.488;2023-04-24T04:55:25;0.60;;;0.30;;
25439;SDS011;13365;52.208;5.488;2023-04-24T04:57:51;1.55;;;0.25;;
25439;SDS011;13365;52.208;5.488;2023-04-24T05:00:17;0.85;;;0.40;;
25439;SDS011;13365;52.208;5.488;2023-04-24T05:02:43;0.65;;;0.38;;
25439;SDS011;13365;52.208;5.488;2023-04-24T05:05:08;0.80;;;0.40;;
25439;SDS011;13365;52.208;5.488;2023-04-24T05:07:35;3.25;;;0.52;;
25439;SDS011;13365;52.208;5.488;2023-04-24T05:10:00;0.98;;;0.85;;
25439;SDS011;13365;52.208;5.488;2023-04-24T05:12:26;0.35;;;0.25;;
25439;SDS011;13365;52.208;5.488;2023-04-24T05:14:52;1.13;;;0.60;;
25439;SDS011;13365;52.208;5.488;2023-04-24T05:17:17;0.70;;;0.43;;
25439;SDS011;13365;52.208;5.488;2023-04-24T05:19:43;1.02;;;0.63;;
25439;SDS011;13365;52.208;5.488;2023-04-24T05:22:09;1.10;;;0.50;;
25439;SDS011;13365;52.208;5.488;2023-04-24T05:24:35;0.68;;;0.50;;
25439;SDS011;13365;52.208;5.488;2023-04-24T05:27:01;0.80;;;0.60;;
25439;SDS011;13365;52.208;5.488;2023-04-24T05:29:28;2.22;;;0.52;;
25439;SDS011;13365;52.208;5.488;2023-04-24T05:31:55;1.02;;;0.60;;
25439;SDS011;13365;52.208;5.488;2023-04-24T05:34:21;1.38;;;0.95;;
25439;SDS011;13365;52.208;5.488;2023-04-24T05:36:47;3.30;;;1.42;;
25439;SDS011;13365;52.208;5.488;2023-04-24T05:39:13;1.52;;;0.75;;
25439;SDS011;13365;52.208;5.488;2023-04-24T05:41:39;2.67;;;0.93;;
25439;SDS011;13365;52.208;5.488;2023-04-24T05:44:05;1.63;;;0.80;;
25439;SDS011;13365;52.208;5.488;2023-04-24T05:46:31;4.38;;;1.48;;
25439;SDS011;13365;52.208;5.488;2023-04-24T05:48:56;1.65;;;0.90;;
25439;SDS011;13365;52.208;5.488;2023-04-24T05:51:22;2.35;;;0.95;;
25439;SDS011;13365;52.208;5.488;2023-04-24T05:53:48;1.67;;;0.55;;
25439;SDS011;13365;52.208;5.488;2023-04-24T05:56:13;1.85;;;0.60;;
25439;SDS011;13365;52.208;5.488;2023-04-24T05:58:39;6.13;;;0.82;;
25439;SDS011;13365;52.208;5.488;2023-04-24T06:01:05;0.57;;;0.43;;
25439;SDS011;13365;52.208;5.488;2023-04-24T06:03:31;1.35;;;0.82;;
25439;SDS011;13365;52.208;5.488;2023-04-24T06:05:56;2.70;;;0.95;;
25439;SDS011;13365;52.208;5.488;2023-04-24T06:08:22;1.70;;;0.90;;
25439;SDS011;13365;52.208;5.488;2023-04-24T06:10:47;3.35;;;1.02;;
25439;SDS011;13365;52.208;5.488;2023-04-24T06:13:13;2.60;;;1.25;;
25439;SDS011;13365;52.208;5.488;2023-04-24T06:15:38;1.55;;;0.82;;
25439;SDS011;13365;52.208;5.488;2023-04-24T06:18:04;2.38;;;0.98;;
25439;SDS011;13365;52.208;5.488;2023-04-24T06:20:29;2.05;;;0.80;;
25439;SDS011;13365;52.208;5.488;2023-04-24T06:22:55;3.78;;;1.05;;
25439;SDS011;13365;52.208;5.488;2023-04-24T06:25:21;1.75;;;0.93;;
25439;SDS011;13365;52.208;5.488;2023-04-24T06:27:46;1.27;;;0.65;;
25439;SDS011;13365;52.208;5.488;2023-04-24T06:30:12;1.25;;;0.60;;
25439;SDS011;13365;52.208;5.488;2023-04-24T06:32:37;2.67;;;0.60;;
25439;SDS011;13365;52.208;5.488;2023-04-24T06:35:04;1.00;;;0.43;;
25439;SDS011;13365;52.208;5.488;2023-04-24T06:37:32;0.85;;;0.63;;
25439;SDS011;13365;52.208;5.488;2023-04-24T06:39:57;0.85;;;0.40;;
25439;SDS011;13365;52.208;5.488;2023-04-24T06:42:23;2.72;;;0.90;;
25439;SDS011;13365;52.208;5.488;2023-04-24T06:44:49;2.35;;;1.23;;
25439;SDS011;13365;52.208;5.488;2023-04-24T06:47:15;3.90;;;1.70;;
25439;SDS011;13365;52.208;5.488;2023-04-24T06:49:40;5.38;;;2.83;;
25439;SDS011;13365;52.208;5.488;2023-04-24T06:52:06;6.03;;;2.83;;
25439;SDS011;13365;52.208;5.488;2023-04-24T06:54:32;7.03;;;2.85;;
25439;SDS011;13365;52.208;5.488;2023-04-24T06:56:58;5.45;;;2.55;;
25439;SDS011;13365;52.208;5.488;2023-04-24T06:59:25;5.28;;;2.92;;
25439;SDS011;13365;52.208;5.488;2023-04-24T07:01:52;7.53;;;3.75;;
25439;SDS011;13365;52.208;5.488;2023-04-24T07:04:18;7.72;;;3.67;;
25439;SDS011;13365;52.208;5.488;2023-04-24T07:06:44;5.20;;;3.65;;
25439;SDS011;13365;52.208;5.488;2023-04-24T07:09:11;6.65;;;3.22;;
25439;SDS011;13365;52.208;5.488;2023-04-24T07:11:38;6.30;;;3.00;;
25439;SDS011;13365;52.208;5.488;2023-04-24T07:14:05;3.97;;;2.58;;
25439;SDS011;13365;52.208;5.488;2023-04-24T07:16:31;2.85;;;1.77;;
25439;SDS011;13365;52.208;5.488;2023-04-24T07:18:56;5.72;;;3.63;;
25439;SDS011;13365;52.208;5.488;2023-04-24T07:21:22;6.60;;;3.40;;
25439;SDS011;13365;52.208;5.488;2023-04-24T07:23:47;9.18;;;4.60;;
25439;SDS011;13365;52.208;5.488;2023-04-24T07:26:13;5.97;;;3.38;;
25439;SDS011;13365;52.208;5.488;2023-04-24T07:28:39;12.55;;;3.03;;
25439;SDS011;13365;52.208;5.488;2023-04-24T07:31:05;11.38;;;4.95;;
25439;SDS011;13365;52.208;5.488;2023-04-24T07:33:31;7.82;;;3.67;;
25439;SDS011;13365;52.208;5.488;2023-04-24T07:35:57;9.77;;;3.05;;
25439;SDS011;13365;52.208;5.488;2023-04-24T07:38:23;16.52;;;5.07;;
25439;SDS011;13365;52.208;5.488;2023-04-24T07:40:51;8.68;;;2.90;;
25439;SDS011;13365;52.208;5.488;2023-04-24T07:43:17;5.82;;;2.92;;
25439;SDS011;13365;52.208;5.488;2023-04-24T07:45:43;7.90;;;3.97;;
25439;SDS011;13365;52.208;5.488;2023-04-24T07:48:09;6.47;;;2.85;;
25439;SDS011;13365;52.208;5.488;2023-04-24T07:50:36;8.68;;;2.67;;
25439;SDS011;13365;52.208;5.488;2023-04-24T07:53:02;5.10;;;2.70;;
25439;SDS011;13365;52.208;5.488;2023-04-24T07:55:27;7.53;;;2.85;;
25439;SDS011;13365;52.208;5.488;2023-04-24T07:57:53;6.75;;;3.00;;
25439;SDS011;13365;52.208;5.488;2023-04-24T08:00:19;6.03;;;3.42;;
25439;SDS011;13365;52.208;5.488;2023-04-24T08:02:45;12.35;;;2.78;;
25439;SDS011;13365;52.208;5.488;2023-04-24T08:05:11;8.38;;;3.20;;
25439;SDS011;13365;52.208;5.488;2023-04-24T08:07:36;6.63;;;2.30;;
25439;SDS011;13365;52.208;5.488;2023-04-24T08:10:03;12.35;;;4.70;;
25439;SDS011;13365;52.208;5.488;2023-04-24T08:12:29;7.10;;;2.80;;
25439;SDS011;13365;52.208;5.488;2023-04-24T08:14:54;10.63;;;3.58;;
25439;SDS011;13365;52.208;5.488;2023-04-24T08:17:20;9.18;;;3.10;;
25439;SDS011;13365;52.208;5.488;2023-04-24T08:19:45;5.55;;;3.17;;
25439;SDS011;13365;52.208;5.488;2023-04-24T08:22:13;6.95;;;3.67;;
25439;SDS011;13365;52.208;5.488;2023-04-24T08:24:39;13.80;;;2.42;;
25439;SDS011;13365;52.208;5.488;2023-04-24T08:27:06;8.00;;;2.08;;
25439;SDS011;13365;52.208;5.488;2023-04-24T08:29:32;3.58;;;1.77;;
25439;SDS011;13365;52.208;5.488;2023-04-24T08:31:58;21.48;;;2.22;;
25439;SDS011;13365;52.208;5.488;2023-04-24T08:34:23;5.72;;;1.50;;
25439;SDS011;13365;52.208;5.488;2023-04-24T08:36:49;6.47;;;1.98;;
25439;SDS011;13365;52.208;5.488;2023-04-24T08:39:16;2.80;;;1.40;;
25439;SDS011;13365;52.208;5.488;2023-04-24T08:41:43;5.57;;;1.88;;
25439;SDS011;13365;52.208;5.488;2023-04-24T08:44:10;7.65;;;1.85;;
25439;SDS011;13365;52.208;5.488;2023-04-24T08:46:36;11.02;;;1.90;;
25439;SDS011;13365;52.208;5.488;2023-04-24T08:49:03;1.77;;;1.35;;
25439;SDS011;13365;52.208;5.488;2023-04-24T08:51:29;2.45;;;1.27;;
25439;SDS011;13365;52.208;5.488;2023-04-24T08:53:56;8.75;;;1.45;;
25439;SDS011;13365;52.208;5.488;2023-04-24T08:56:22;2.42;;;0.77;;
25439;SDS011;13365;52.208;5.488;2023-04-24T08:58:50;5.47;;;1.38;;
25439;SDS011;13365;52.208;5.488;2023-04-24T09:01:16;4.63;;;1.92;;
25439;SDS011;13365;52.208;5.488;2023-04-24T09:03:44;8.68;;;2.42;;
25439;SDS011;13365;52.208;5.488;2023-04-24T09:06:11;5.10;;;1.95;;
25439;SDS011;13365;52.208;5.488;2023-04-24T09:08:37;6.55;;;1.23;;
25439;SDS011;13365;52.208;5.488;2023-04-24T09:11:05;3.10;;;1.25;;
25439;SDS011;13365;52.208;5.488;2023-04-24T09:13:31;10.23;;;2.42;;
25439;SDS011;13365;52.208;5.488;2023-04-24T09:15:57;8.85;;;1.85;;
25439;SDS011;13365;52.208;5.488;2023-04-24T09:18:25;13.18;;;2.22;;
25439;SDS011;13365;52.208;5.488;2023-04-24T09:21:06;4.47;;;1.38;;
25439;SDS011;13365;52.208;5.488;2023-04-24T09:23:33;3.03;;;1.00;;
25439;SDS011;13365;52.208;5.488;2023-04-24T09:25:59;7.60;;;2.13;;
25439;SDS011;13365;52.208;5.488;2023-04-24T09:28:30;2.58;;;1.73;;
25439;SDS011;13365;52.208;5.488;2023-04-24T09:31:04;1.35;;;0.55;;
25439;SDS011;13365;52.208;5.488;2023-04-24T09:33:34;4.50;;;1.70;;
25439;SDS011;13365;52.208;5.488;2023-04-24T09:36:00;2.33;;;1.27;;
25439;SDS011;13365;52.208;5.488;2023-04-24T09:38:30;3.60;;;1.52;;
25439;SDS011;13365;52.208;5.488;2023-04-24T09:41:04;1.92;;;0.70;;
25439;SDS011;13365;52.208;5.488;2023-04-24T09:43:31;2.10;;;0.80;;
25439;SDS011;13365;52.208;5.488;2023-04-24T09:45:58;2.42;;;0.85;;
25439;SDS011;13365;52.208;5.488;2023-04-24T09:48:37;0.50;;;0.50;;
25439;SDS011;13365;52.208;5.488;2023-04-24T09:51:04;1.67;;;0.90;;
25439;SDS011;13365;52.208;5.488;2023-04-24T09:53:35;9.00;;;2.05;;
25439;SDS011;13365;52.208;5.488;2023-04-24T09:56:07;3.25;;;1.58;;
25439;SDS011;13365;52.208;5.488;2023-04-24T09:58:35;4.95;;;0.95;;
25439;SDS011;13365;52.208;5.488;2023-04-24T10:01:01;3.75;;;1.08;;
25439;SDS011;13365;52.208;5.488;2023-04-24T10:03:29;1.50;;;0.60;;
25439;SDS011;13365;52.208;5.488;2023-04-24T10:05:58;9.48;;;1.42;;
25439;SDS011;13365;52.208;5.488;2023-04-24T10:08:24;1.63;;;0.63;;
25439;SDS011;13365;52.208;5.488;2023-04-24T10:10:51;7.32;;;2.20;;
25439;SDS011;13365;52.208;5.488;2023-04-24T10:13:17;1.13;;;0.80;;
25439;SDS011;13365;52.208;5.488;2023-04-24T10:15:43;7.97;;;1.52;;
25439;SDS011;13365;52.208;5.488;2023-04-24T10:18:09;2.22;;;0.68;;
25439;SDS011;13365;52.208;5.488;2023-04-24T10:20:36;1.10;;;0.77;;
25439;SDS011;13365;52.208;5.488;2023-04-24T10:23:03;5.18;;;0.95;;
25439;SDS011;13365;52.208;5.488;2023-04-24T10:25:30;4.57;;;1.33;;
25439;SDS011;13365;52.208;5.488;2023-04-24T10:27:59;4.72;;;1.52;;
25439;SDS011;13365;52.208;5.488;2023-04-24T10:30:26;4.68;;;1.73;;
25439;SDS011;13365;52.208;5.488;2023-04-24T10:32:53;2.88;;;0.88;;
25439;SDS011;13365;52.208;5.488;2023-04-24T10:35:19;2.58;;;0.98;;
25439;SDS011;13365;52.208;5.488;2023-04-24T10:38:06;8.80;;;0.77;;
25439;SDS011;13365;52.208;5.488;2023-04-24T10:40:35;0.95;;;0.50;;
25439;SDS011;13365;52.208;5.488;2023-04-24T10:43:04;2.33;;;0.60;;
25439;SDS011;13365;52.208;5.488;2023-04-24T10:45:33;1.90;;;0.30;;
25439;SDS011;13365;52.208;5.488;2023-04-24T10:48:09;2.55;;;0.52;;
25439;SDS011;13365;52.208;5.488;2023-04-24T10:50:45;3.20;;;0.73;;
25439;SDS011;13365;52.208;5.488;2023-04-24T10:53:22;4.30;;;0.60;;
25439;SDS011;13365;52.208;5.488;2023-04-24T10:56:07;0.50;;;0.50;;
25439;SDS011;13365;52.208;5.488;2023-04-24T11:01:10;0.35;;;0.20;;
25439;SDS011;13365;52.208;5.488;2023-04-24T11:03:50;4.83;;;0.83;;
25439;SDS011;13365;52.208;5.488;2023-04-24T11:06:28;1.00;;;0.32;;
25439;SDS011;13365;52.208;5.488;2023-04-24T11:08:59;3.72;;;0.82;;
25439;SDS011;13365;52.208;5.488;2023-04-24T11:11:29;1.15;;;0.40;;
25439;SDS011;13365;52.208;5.488;2023-04-24T11:16:21;5.63;;;0.77;;
25439;SDS011;13365;52.208;5.488;2023-04-24T11:26:58;0.35;;;0.17;;
25439;SDS011;13365;52.208;5.488;2023-04-24T11:32:41;0.43;;;0.17;;
25439;SDS011;13365;52.208;5.488;2023-04-24T11:35:14;1.85;;;0.30;;
25439;SDS011;13365;52.208;5.488;2023-04-24T11:37:45;2.00;;;0.50;;
25439;SDS011;13365;52.208;5.488;2023-04-24T11:40:12;2.40;;;0.28;;
25439;SDS011;13365;52.208;5.488;2023-04-24T11:42:41;0.40;;;0.30;;
25439;SDS011;13365;52.208;5.488;2023-04-24T11:47:36;0.68;;;0.15;;
25439;SDS011;13365;52.208;5.488;2023-04-24T11:50:02;0.47;;;0.30;;
25439;SDS011;13365;52.208;5.488;2023-04-24T11:52:29;2.00;;;0.80;;
25439;SDS011;13365;52.208;5.488;2023-04-24T11:54:55;0.52;;;0.30;;
25439;SDS011;13365;52.208;5.488;2023-04-24T11:57:22;0.22;;;0.20;;
25439;SDS011;13365;52.208;5.488;2023-04-24T11:59:51;3.10;;;0.30;;
25439;SDS011;13365;52.208;5.488;2023-04-24T12:02:20;0.52;;;0.10;;
25439;SDS011;13365;52.208;5.488;2023-04-24T12:04:46;0.35;;;0.35;;
25439;SDS011;13365;52.208;5.488;2023-04-24T12:07:12;0.32;;;0.10;;
25439;SDS011;13365;52.208;5.488;2023-04-24T12:12:07;0.15;;;0.15;;
25439;SDS011;13365;52.208;5.488;2023-04-24T12:14:41;2.55;;;1.02;;
25439;SDS011;13365;52.208;5.488;2023-04-24T12:17:07;2.90;;;0.65;;
25439;SDS011;13365;52.208;5.488;2023-04-24T12:19:33;2.20;;;0.75;;
25439;SDS011;13365;52.208;5.488;2023-04-24T12:21:59;0.73;;;0.35;;
25439;SDS011;13365;52.208;5.488;2023-04-24T12:24:25;1.98;;;1.17;;
25439;SDS011;13365;52.208;5.488;2023-04-24T12:26:51;1.00;;;0.25;;
25439;SDS011;13365;52.208;5.488;2023-04-24T12:29:23;4.57;;;0.57;;
25439;SDS011;13365;52.208;5.488;2023-04-24T12:31:49;0.17;;;0.17;;
25439;SDS011;13365;52.208;5.488;2023-04-24T12:36:45;1.13;;;0.10;;
25439;SDS011;13365;52.208;5.488;2023-04-24T12:39:18;1.55;;;0.28;;
25439;SDS011;13365;52.208;5.488;2023-04-24T12:41:57;4.85;;;0.47;;
25439;SDS011;13365;52.208;5.488;2023-04-24T12:44:32;0.30;;;0.20;;
25439;SDS011;13365;52.208;5.488;2023-04-24T12:47:02;0.50;;;0.30;;
25439;SDS011;13365;52.208;5.488;2023-04-24T12:49:31;5.05;;;0.95;;
25439;SDS011;13365;52.208;5.488;2023-04-24T12:51:57;3.38;;;1.42;;
25439;SDS011;13365;52.208;5.488;2023-04-24T12:54:22;0.40;;;0.30;;
25439;SDS011;13365;52.208;5.488;2023-04-24T12:56:48;13.38;;;1.50;;
25439;SDS011;13365;52.208;5.488;2023-04-24T12:59:13;1.95;;;0.63;;
25439;SDS011;13365;52.208;5.488;2023-04-24T13:01:39;2.53;;;0.40;;
25439;SDS011;13365;52.208;5.488;2023-04-24T13:04:05;0.98;;;0.40;;
25439;SDS011;13365;52.208;5.488;2023-04-24T13:06:31;5.55;;;0.95;;
25439;SDS011;13365;52.208;5.488;2023-04-24T13:08:57;1.80;;;0.80;;
25439;SDS011;13365;52.208;5.488;2023-04-24T13:11:23;6.38;;;1.30;;
25439;SDS011;13365;52.208;5.488;2023-04-24T13:13:49;7.57;;;1.15;;
25439;SDS011;13365;52.208;5.488;2023-04-24T13:16:15;1.48;;;0.52;;
25439;SDS011;13365;52.208;5.488;2023-04-24T13:18:40;5.50;;;1.13;;
25439;SDS011;13365;52.208;5.488;2023-04-24T13:21:06;1.98;;;0.88;;
25439;SDS011;13365;52.208;5.488;2023-04-24T13:23:31;5.78;;;0.88;;
25439;SDS011;13365;52.208;5.488;2023-04-24T13:25:57;5.55;;;0.82;;
25439;SDS011;13365;52.208;5.488;2023-04-24T13:28:24;5.30;;;1.27;;
25439;SDS011;13365;52.208;5.488;2023-04-24T13:30:50;0.90;;;0.57;;
25439;SDS011;13365;52.208;5.488;2023-04-24T13:33:16;2.17;;;0.55;;
25439;SDS011;13365;52.208;5.488;2023-04-24T13:35:41;3.08;;;0.95;;
25439;SDS011;13365;52.208;5.488;2023-04-24T13:38:07;9.25;;;1.63;;
25439;SDS011;13365;52.208;5.488;2023-04-24T13:40:33;10.13;;;0.93;;
25439;SDS011;13365;52.208;5.488;2023-04-24T13:42:58;5.13;;;0.55;;
25439;SDS011;13365;52.208;5.488;2023-04-24T13:45:24;3.95;;;1.05;;
25439;SDS011;13365;52.208;5.488;2023-04-24T13:47:49;1.05;;;0.38;;
25439;SDS011;13365;52.208;5.488;2023-04-24T13:50:15;3.90;;;1.50;;
25439;SDS011;13365;52.208;5.488;2023-04-24T13:52:40;6.80;;;0.70;;
25439;SDS011;13365;52.208;5.488;2023-04-24T13:55:06;4.68;;;2.03;;
25439;SDS011;13365;52.208;5.488;2023-04-24T13:57:32;0.47;;;0.30;;
25439;SDS011;13365;52.208;5.488;2023-04-24T13:59:58;7.00;;;1.95;;
25439;SDS011;13365;52.208;5.488;2023-04-24T14:02:28;4.18;;;0.88;;
25439;SDS011;13365;52.208;5.488;2023-04-24T14:04:54;0.55;;;0.40;;
25439;SDS011;13365;52.208;5.488;2023-04-24T14:07:20;3.95;;;0.98;;
25439;SDS011;13365;52.208;5.488;2023-04-24T14:09:45;3.90;;;1.92;;
25439;SDS011;13365;52.208;5.488;2023-04-24T14:12:11;8.73;;;1.20;;
25439;SDS011;13365;52.208;5.488;2023-04-24T14:14:37;10.95;;;1.65;;
25439;SDS011;13365;52.208;5.488;2023-04-24T14:17:03;8.45;;;1.58;;
25439;SDS011;13365;52.208;5.488;2023-04-24T14:19:28;1.92;;;0.77;;
25439;SDS011;13365;52.208;5.488;2023-04-24T14:21:54;1.80;;;0.40;;
25439;SDS011;13365;52.208;5.488;2023-04-24T14:24:21;4.47;;;2.20;;
25439;SDS011;13365;52.208;5.488;2023-04-24T14:26:48;0.82;;;0.52;;
25439;SDS011;13365;52.208;5.488;2023-04-24T14:29:14;7.07;;;1.17;;
25439;SDS011;13365;52.208;5.488;2023-04-24T14:31:40;1.67;;;0.90;;
25439;SDS011;13365;52.208;5.488;2023-04-24T14:34:06;1.40;;;0.73;;
25439;SDS011;13365;52.208;5.488;2023-04-24T14:36:31;5.63;;;1.70;;
25439;SDS011;13365;52.208;5.488;2023-04-24T14:38:57;8.27;;;1.05;;
25439;SDS011;13365;52.208;5.488;2023-04-24T14:41:22;0.82;;;0.50;;
25439;SDS011;13365;52.208;5.488;2023-04-24T14:43:48;10.32;;;1.15;;
25439;SDS011;13365;52.208;5.488;2023-04-24T14:46:13;3.55;;;1.10;;
25439;SDS011;13365;52.208;5.488;2023-04-24T14:48:39;4.70;;;1.27;;
25439;SDS011;13365;52.208;5.488;2023-04-24T14:51:05;4.13;;;0.70;;
25439;SDS011;13365;52.208;5.488;2023-04-24T14:53:30;0.43;;;0.43;;
25439;SDS011;13365;52.208;5.488;2023-04-24T14:55:56;1.70;;;0.60;;
25439;SDS011;13365;52.208;5.488;2023-04-24T14:58:21;4.38;;;0.55;;
25439;SDS011;13365;52.208;5.488;2023-04-24T15:00:47;4.47;;;0.73;;
25439;SDS011;13365;52.208;5.488;2023-04-24T15:03:16;0.77;;;0.77;;
25439;SDS011;13365;52.208;5.488;2023-04-24T15:05:43;1.98;;;0.93;;
25439;SDS011;13365;52.208;5.488;2023-04-24T15:08:08;2.50;;;1.17;;